createdAt,value
2023-05-14T00:00:35.376Z,18.8
2023-05-14T00:20:35.386Z,18.8
2023-05-14T00:40:38.327Z,18.6
2023-05-14T01:00:34.739Z,18.6
2023-05-14T01:20:37.853Z,18.5
2023-05-14T01:40:35.554Z,18.5
2023-05-14T02:00:35.086Z,18.4
2023-05-14T02:20:35.587Z,18.4
2023-05-14T02:40:35.378Z,18.3
2023-05-14T03:00:39.096Z,18.3
2023-05-14T03:20:36.512Z,18.2
2023-05-14T03:40:36.772Z,18.1
2023-05-14T04:00:38.377Z,18.1
2023-05-14T04:20:53.516Z,18
2023-05-14T04:40:54.243Z,18.1
2023-05-14T05:00:53.559Z,18.1
2023-05-14T05:20:53.033Z,18.1
2023-05-14T05:40:51.405Z,18.2
2023-05-14T06:00:54.555Z,18.2
2023-05-14T06:20:56.055Z,18.2
2023-05-14T06:40:51.687Z,18.2
2023-05-14T07:01:00.307Z,18.3
2023-05-14T07:20:53.374Z,18.3
2023-05-14T07:40:53.600Z,18.4
2023-05-14T08:00:58.356Z,18.6
2023-05-14T08:20:52.555Z,18.6
2023-05-14T08:40:50.781Z,18.7
2023-05-14T09:00:52.606Z,18.7
2023-05-14T09:20:53.746Z,18.8
2023-05-14T09:40:52.150Z,18.9
2023-05-14T10:00:49.654Z,18.9
2023-05-14T10:20:55.842Z,19
2023-05-14T10:40:53.590Z,18.9
2023-05-14T11:00:53.151Z,18.9
2023-05-14T11:20:57.738Z,19
2023-05-14T11:40:53.186Z,19
2023-05-14T12:00:56.252Z,19.1
2023-05-14T12:20:54.681Z,19.1
2023-05-14T12:40:52.821Z,19.2
2023-05-14T13:00:51.036Z,19.3
2023-05-14T13:20:58.790Z,19.4
2023-05-14T13:40:56.089Z,19.1
2023-05-14T14:00:54.211Z,19.1
2023-05-14T14:20:53.545Z,19.1
2023-05-14T14:40:52.553Z,19.3
2023-05-14T15:00:53.786Z,19.4
2023-05-14T15:20:52.671Z,19.5
2023-05-14T15:40:52.653Z,19.6
2023-05-14T16:00:54.189Z,19.6
2023-05-14T16:20:52.923Z,19.6
2023-05-14T16:40:52.877Z,19.7
2023-05-14T17:00:53.900Z,19.7
2023-05-14T17:20:55.220Z,19.7
2023-05-14T17:40:52.656Z,19.7
2023-05-14T18:00:53.166Z,19.7
2023-05-14T18:20:52.284Z,19.7
2023-05-14T18:40:51.971Z,19.7
2023-05-14T19:00:34.383Z,19.7
2023-05-14T19:20:35.332Z,19.4
2023-05-14T19:40:34.754Z,19.5
2023-05-14T20:00:35.161Z,19.5
2023-05-14T20:20:41.128Z,19.5
2023-05-14T20:40:34.977Z,19.4
2023-05-14T21:00:35.173Z,19.4
2023-05-14T21:20:35.262Z,19.3
2023-05-14T21:40:38.216Z,19.2
2023-05-14T22:00:43.951Z,19.1
2023-05-14T22:20:36.345Z,19.1
2023-05-14T22:40:35.246Z,19
2023-05-14T23:00:35.815Z,19
2023-05-14T23:20:36.989Z,18.9
2023-05-14T23:40:35.775Z,18.9
